Time;durP1;ratioP1;P1;durP2;ratioP2;P2;SDS_P1;SDS_P2;PMS_P1;PMS_P2;Temp;Humidity;BMP_temperature;BMP_pressure;BME280_temperature;BME280_humidity;BME280_pressure;Samples;Min_cycle;Max_cycle;Signal;HPM_P1;HPM_P2
2021/05/02 00:00:20;;;;;;;11.52;5.45;;;12.20;72.60;;;;;;5071979;28;20468;-59
2021/05/02 00:02:46;;;;;;;17.00;5.80;;;12.30;72.80;;;;;;5072497;28;20035;-60
2021/05/02 00:05:14;;;;;;;10.15;4.57;;;12.20;73.00;;;;;;5088024;28;20035;-59
2021/05/02 00:07:40;;;;;;;18.70;4.60;;;12.20;72.00;;;;;;5072167;28;20391;-60
2021/05/02 00:10:08;;;;;;;17.73;5.45;;;12.20;71.90;;;;;;5072805;28;20032;-59
2021/05/02 00:12:33;;;;;;;16.17;6.40;;;12.20;71.90;;;;;;5072602;28;20047;-59
2021/05/02 00:14:59;;;;;;;19.65;6.20;;;12.20;72.00;;;;;;5072673;28;20029;-59
2021/05/02 00:17:26;;;;;;;24.20;6.10;;;12.20;72.10;;;;;;5076976;28;20032;-59
2021/05/02 00:19:53;;;;;;;10.32;5.60;;;12.20;72.20;;;;;;5075929;28;20052;-60
2021/05/02 00:22:20;;;;;;;14.48;4.85;;;12.20;71.80;;;;;;5075197;28;20383;-59
2021/05/02 00:24:47;;;;;;;16.92;4.93;;;12.20;71.30;;;;;;5076804;28;20035;-60
2021/05/02 00:27:13;;;;;;;19.42;6.43;;;12.10;71.50;;;;;;5075899;28;20036;-60
2021/05/02 00:29:41;;;;;;;18.35;8.25;;;12.10;71.60;;;;;;5076430;28;20043;-60
2021/05/02 00:32:08;;;;;;;8.93;5.55;;;12.10;72.30;;;;;;5076481;28;20078;-60
2021/05/02 00:34:37;;;;;;;22.73;8.95;;;12.10;72.40;;;;;;5075403;28;20036;-60
2021/05/02 00:37:04;;;;;;;16.63;7.55;;;12.10;72.90;;;;;;5076492;28;20028;-60
2021/05/02 00:39:30;;;;;;;18.90;7.30;;;12.00;72.60;;;;;;5076231;28;20032;-60
2021/05/02 00:42:03;;;;;;;16.95;7.22;;;12.10;73.20;;;;;;5075712;28;20024;-60
2021/05/02 00:44:45;;;;;;;18.73;7.40;;;12.00;73.40;;;;;;5076170;28;20032;-60
2021/05/02 00:47:18;;;;;;;18.05;6.20;;;12.00;73.60;;;;;;5075835;28;20302;-60
2021/05/02 00:50:08;;;;;;;17.15;6.80;;;12.00;73.30;;;;;;5075429;28;20028;-59
2021/05/02 00:52:50;;;;;;;15.05;4.93;;;11.90;73.30;;;;;;5064262;28;20029;-59
2021/05/02 00:55:22;;;;;;;20.95;5.63;;;11.90;73.30;;;;;;5075029;28;20028;-60
2021/05/02 00:57:56;;;;;;;16.45;4.32;;;11.90;73.00;;;;;;5076041;28;20047;-60
2021/05/02 01:00:26;;;;;;;12.15;3.78;;;11.80;72.60;;;;;;5075867;28;20376;-59
2021/05/02 01:03:03;;;;;;;14.88;3.55;;;11.80;72.40;;;;;;5075275;28;20020;-59
2021/05/02 01:05:31;;;;;;;18.48;4.18;;;11.80;72.70;;;;;;5075746;28;20032;-60
2021/05/02 01:08:07;;;;;;;13.32;4.53;;;11.70;72.50;;;;;;5075722;28;20048;-60
2021/05/02 01:10:33;;;;;;;8.77;3.88;;;11.70;72.80;;;;;;5075140;28;20107;-60
2021/05/02 01:13:01;;;;;;;12.27;3.83;;;11.70;72.70;;;;;;5075817;28;20086;-60
2021/05/02 01:15:33;;;;;;;11.90;3.58;;;11.70;72.80;;;;;;5075607;28;20054;-60
2021/05/02 01:18:07;;;;;;;12.10;3.38;;;11.70;72.80;;;;;;5074972;28;20090;-59
2021/05/02 01:20:39;;;;;;;5.25;2.08;;;11.70;73.40;;;;;;5075611;28;20028;-59
2021/05/02 01:23:10;;;;;;;12.40;4.20;;;11.70;72.80;;;;;;5075016;28;20036;-60
2021/05/02 01:25:37;;;;;;;6.38;2.28;;;11.60;72.80;;;;;;5075449;28;20024;-59
2021/05/02 01:28:04;;;;;;;10.73;3.53;;;11.70;72.40;;;;;;5074234;28;20078;-59
2021/05/02 01:30:30;;;;;;;13.38;4.45;;;11.60;73.00;;;;;;5074693;28;20020;-60
2021/05/02 01:32:56;;;;;;;12.32;3.60;;;11.60;73.50;;;;;;5075147;28;20361;-60
2021/05/02 01:35:23;;;;;;;13.52;3.03;;;11.60;73.20;;;;;;5075256;28;20024;-60
2021/05/02 01:37:51;;;;;;;13.90;3.78;;;11.60;73.20;;;;;;5074571;28;20039;-60
2021/05/02 01:40:18;;;;;;;12.77;3.38;;;11.60;73.50;;;;;;5075193;28;20116;-60
2021/05/02 01:42:45;;;;;;;11.27;3.15;;;11.60;73.60;;;;;;5074958;28;20037;-60
2021/05/02 01:45:11;;;;;;;11.82;3.75;;;11.50;73.50;;;;;;5074181;28;20027;-60
2021/05/02 01:47:45;;;;;;;8.60;2.50;;;11.50;73.40;;;;;;5074891;28;20049;-60
2021/05/02 01:50:12;;;;;;;6.28;1.83;;;11.60;74.00;;;;;;5074747;28;20051;-59
2021/05/02 01:52:44;;;;;;;5.35;2.22;;;11.50;73.30;;;;;;5074240;28;20118;-59
2021/05/02 01:55:11;;;;;;;6.50;1.52;;;11.50;72.50;;;;;;5075286;28;20103;-60
2021/05/02 01:57:37;;;;;;;11.02;3.17;;;11.50;72.20;;;;;;5073669;28;20127;-60
2021/05/02 02:00:09;;;;;;;9.00;2.58;;;11.50;72.30;;;;;;5074114;28;20092;-59
2021/05/02 02:02:37;;;;;;;14.38;3.17;;;11.40;72.10;;;;;;5074852;28;20074;-60
2021/05/02 02:05:05;;;;;;;13.75;2.95;;;11.40;72.40;;;;;;5074718;28;20483;-59
2021/05/02 02:07:32;;;;;;;9.25;2.63;;;11.50;72.50;;;;;;5072675;28;20059;-60
2021/05/02 02:09:58;;;;;;;6.38;2.42;;;11.40;72.60;;;;;;5074787;28;20033;-60
2021/05/02 02:12:24;;;;;;;9.45;2.58;;;11.40;72.30;;;;;;5073486;28;20082;-60
2021/05/02 02:14:51;;;;;;;9.23;2.70;;;11.40;72.30;;;;;;5074720;28;20525;-60
2021/05/02 02:17:19;;;;;;;12.13;2.95;;;11.40;72.30;;;;;;5074317;28;20120;-60
2021/05/02 02:19:45;;;;;;;8.60;2.90;;;11.40;72.80;;;;;;5073926;28;20035;-60
2021/05/02 02:22:14;;;;;;;10.00;3.40;;;11.30;73.30;;;;;;5074347;28;20097;-59
2021/05/02 02:25:00;;;;;;;12.60;2.25;;;11.40;72.60;;;;;;5074414;28;20032;-59
2021/05/02 02:27:28;;;;;;;2.67;1.38;;;11.30;72.60;;;;;;5073538;28;20373;-59
2021/05/02 02:29:57;;;;;;;5.03;1.35;;;11.30;72.60;;;;;;5074265;28;20476;-59
2021/05/02 02:32:23;;;;;;;8.00;2.65;;;11.30;72.20;;;;;;5074088;28;20503;-59
2021/05/02 02:34:50;;;;;;;8.35;2.28;;;11.30;72.50;;;;;;5073416;28;20032;-60
2021/05/02 02:37:22;;;;;;;9.93;2.60;;;11.20;72.30;;;;;;5074018;28;20024;-60
2021/05/02 02:40:08;;;;;;;11.55;2.47;;;11.20;72.50;;;;;;5073922;28;20028;-60
2021/05/02 02:42:36;;;;;;;7.30;2.17;;;11.20;72.80;;;;;;5073490;28;20028;-60
2021/05/02 02:45:08;;;;;;;13.10;2.85;;;11.20;72.60;;;;;;5073807;28;20045;-59
2021/05/02 02:47:41;;;;;;;5.70;1.35;;;11.20;72.80;;;;;;5072964;28;20083;-59
2021/05/02 02:50:10;;;;;;;6.65;2.22;;;11.20;72.50;;;;;;5073566;28;20560;-59
2021/05/02 02:52:43;;;;;;;7.20;1.75;;;11.20;72.40;;;;;;5071752;28;20066;-60
2021/05/02 02:55:11;;;;;;;5.65;2.38;;;11.20;72.20;;;;;;5072815;28;20459;-61
2021/05/02 02:57:44;;;;;;;8.73;2.30;;;11.20;72.20;;;;;;5073284;28;20146;-59
2021/05/02 03:00:10;;;;;;;10.27;1.97;;;11.20;72.30;;;;;;5073577;28;20361;-60
2021/05/02 03:02:38;;;;;;;3.67;1.65;;;11.10;71.90;;;;;;5072998;28;20112;-60
2021/05/02 03:05:05;;;;;;;5.55;1.60;;;11.10;72.00;;;;;;5073589;28;20474;-59
2021/05/02 03:07:34;;;;;;;5.63;2.08;;;11.10;72.10;;;;;;5073417;28;20066;-60
2021/05/02 03:10:00;;;;;;;7.25;2.58;;;11.10;72.20;;;;;;5072572;28;20441;-60
2021/05/02 03:12:26;;;;;;;6.72;2.17;;;11.10;72.10;;;;;;5073464;28;20073;-59
2021/05/02 03:14:54;;;;;;;5.22;2.00;;;11.10;72.00;;;;;;5073209;28;20495;-60
2021/05/02 03:17:29;;;;;;;4.43;1.80;;;11.20;72.00;;;;;;5072790;28;20039;-59
2021/05/02 03:20:03;;;;;;;4.32;2.05;;;11.10;71.80;;;;;;5073342;28;20024;-59
2021/05/02 03:22:41;;;;;;;7.72;1.92;;;11.10;71.70;;;;;;5073327;28;20032;-59
2021/05/02 03:25:11;;;;;;;11.88;2.50;;;11.20;71.70;;;;;;5073242;28;20048;-59
2021/05/02 03:27:43;;;;;;;12.05;2.20;;;11.10;71.70;;;;;;5073109;28;20036;-59
2021/05/02 03:30:10;;;;;;;12.60;3.83;;;11.20;71.60;;;;;;5072306;28;20032;-59
2021/05/02 03:32:43;;;;;;;6.43;2.38;;;11.20;71.90;;;;;;5073179;28;20025;-59
2021/05/02 03:35:10;;;;;;;9.68;2.53;;;11.10;71.90;;;;;;5073106;28;20044;-59
2021/05/02 03:37:37;;;;;;;11.63;2.78;;;11.20;71.70;;;;;;5072299;28;20032;-60
2021/05/02 03:40:06;;;;;;;2.53;1.40;;;11.20;71.60;;;;;;5073040;28;20384;-59
2021/05/02 03:42:33;;;;;;;5.05;2.22;;;11.20;71.30;;;;;;5071067;28;20468;-60
2021/05/02 03:44:59;;;;;;;8.43;2.17;;;11.20;71.20;;;;;;5072232;28;20066;-59
2021/05/02 03:47:25;;;;;;;13.75;2.92;;;11.20;71.10;;;;;;5072653;28;20127;-60
2021/05/02 03:49:51;;;;;;;11.38;2.30;;;11.20;71.20;;;;;;5072290;28;20037;-59
2021/05/02 03:52:17;;;;;;;6.85;2.50;;;11.20;70.90;;;;;;5071824;28;20047;-59
2021/05/02 03:54:43;;;;;;;10.50;2.17;;;11.20;71.00;;;;;;5073177;28;20454;-59
2021/05/02 03:57:09;;;;;;;9.98;3.45;;;11.20;71.00;;;;;;5072836;28;20028;-59
2021/05/02 03:59:35;;;;;;;4.90;2.42;;;11.20;70.90;;;;;;5072099;28;20036;-59
2021/05/02 04:02:03;;;;;;;7.80;1.92;;;11.20;70.90;;;;;;5072498;28;20058;-59
2021/05/02 04:04:37;;;;;;;6.63;2.47;;;11.20;71.10;;;;;;5072815;28;20032;-59
2021/05/02 04:07:05;;;;;;;9.38;1.98;;;11.20;71.20;;;;;;5071880;28;20036;-59
2021/05/02 04:09:33;;;;;;;16.10;3.15;;;11.20;71.10;;;;;;5072842;28;20028;-59
2021/05/02 04:11:59;;;;;;;6.65;1.73;;;11.20;71.30;;;;;;5072124;28;20028;-60
2021/05/02 04:14:25;;;;;;;14.95;3.85;;;11.10;71.20;;;;;;5072351;28;20029;-60
2021/05/02 04:16:55;;;;;;;6.25;1.98;;;11.10;71.40;;;;;;5072624;28;20071;-59
2021/05/02 04:19:22;;;;;;;11.60;2.38;;;11.10;71.50;;;;;;5071730;28;20033;-59
2021/05/02 04:21:48;;;;;;;9.68;3.10;;;11.00;71.50;;;;;;5072762;28;20031;-59
2021/05/02 04:24:14;;;;;;;5.13;1.77;;;11.00;71.50;;;;;;5072310;28;20040;-59
2021/05/02 04:26:47;;;;;;;7.95;3.22;;;11.00;71.50;;;;;;5071954;28;20020;-60
2021/05/02 04:29:13;;;;;;;9.57;2.70;;;11.00;72.00;;;;;;5072246;28;20068;-60
2021/05/02 04:31:39;;;;;;;4.93;1.67;;;10.90;72.00;;;;;;5072522;28;20055;-60
2021/05/02 04:34:05;;;;;;;16.50;3.05;;;10.90;72.00;;;;;;5072242;28;20040;-59
2021/05/02 04:36:31;;;;;;;3.90;2.00;;;10.80;72.30;;;;;;5072504;28;20071;-59
2021/05/02 04:38:57;;;;;;;4.15;1.60;;;10.90;72.00;;;;;;5072423;28;20116;-59
2021/05/02 04:41:23;;;;;;;5.93;2.42;;;10.80;71.90;;;;;;5071413;28;20040;-59
2021/05/02 04:43:49;;;;;;;7.40;2.55;;;10.80;72.20;;;;;;5072508;28;20035;-60
2021/05/02 04:46:15;;;;;;;8.88;2.50;;;10.80;72.50;;;;;;5071932;28;20106;-59
2021/05/02 04:48:42;;;;;;;5.40;2.15;;;10.80;72.40;;;;;;5071404;28;20171;-59
2021/05/02 04:51:09;;;;;;;8.48;2.28;;;10.80;72.50;;;;;;5071833;28;20025;-59
2021/05/02 04:53:35;;;;;;;6.63;2.35;;;10.80;72.50;;;;;;5071815;28;20028;-60
2021/05/02 04:56:01;;;;;;;12.40;2.50;;;10.80;72.40;;;;;;5063649;28;20035;-59
2021/05/02 04:58:26;;;;;;;2.97;1.52;;;10.80;72.40;;;;;;5071641;28;20029;-59
2021/05/02 05:00:52;;;;;;;5.50;2.50;;;10.80;72.50;;;;;;5070660;28;20028;-59
2021/05/02 05:03:18;;;;;;;6.00;2.22;;;10.80;72.60;;;;;;5074469;28;20035;-58
2021/05/02 05:05:44;;;;;;;7.72;2.17;;;10.80;72.50;;;;;;5075261;28;20025;-58
2021/05/02 05:08:10;;;;;;;8.82;2.83;;;10.80;72.50;;;;;;5073383;28;20041;-59
2021/05/02 05:10:36;;;;;;;11.63;3.08;;;10.80;72.80;;;;;;5075630;28;20386;-59
2021/05/02 05:13:02;;;;;;;7.72;2.80;;;10.80;72.90;;;;;;5075584;28;20384;-59
2021/05/02 05:15:28;;;;;;;10.05;3.08;;;10.70;72.80;;;;;;5074844;28;20028;-59
2021/05/02 05:17:54;;;;;;;7.15;2.58;;;10.80;73.00;;;;;;5070175;28;20120;-59
2021/05/02 05:20:19;;;;;;;4.00;2.08;;;10.80;73.10;;;;;;5066429;28;20143;-59
2021/05/02 05:22:45;;;;;;;5.38;2.42;;;10.70;73.30;;;;;;5071620;28;20482;-58
2021/05/02 05:25:12;;;;;;;10.75;2.60;;;10.70;73.20;;;;;;5075091;28;20073;-59
2021/05/02 05:27:37;;;;;;;28.27;3.38;;;10.70;73.40;;;;;;5074917;28;20068;-59
2021/05/02 05:30:04;;;;;;;7.50;2.20;;;10.70;73.30;;;;;;5074611;28;20067;-59
2021/05/02 05:32:30;;;;;;;5.95;2.45;;;10.70;73.20;;;;;;5075345;28;20029;-59
2021/05/02 05:34:55;;;;;;;9.60;1.90;;;10.70;73.40;;;;;;5075388;28;20042;-60
2021/05/02 05:37:21;;;;;;;9.65;2.28;;;10.70;73.50;;;;;;5074519;28;20384;-59
2021/05/02 05:39:49;;;;;;;9.35;2.72;;;10.70;73.50;;;;;;5075223;28;20089;-59
2021/05/02 05:42:15;;;;;;;7.70;2.50;;;10.70;73.50;;;;;;5074963;28;20071;-61
2021/05/02 05:44:41;;;;;;;12.57;4.88;;;10.70;73.50;;;;;;5074287;28;20149;-59
2021/05/02 05:47:08;;;;;;;5.65;1.90;;;10.70;73.30;;;;;;5074733;28;20136;-59
2021/05/02 05:49:34;;;;;;;5.72;2.20;;;10.70;73.10;;;;;;5075121;28;20032;-59
2021/05/02 05:51:59;;;;;;;5.07;1.55;;;10.70;73.30;;;;;;5067144;28;20385;-59
2021/05/02 05:54:25;;;;;;;8.20;2.33;;;10.70;72.70;;;;;;5073473;28;20032;-59
2021/05/02 05:56:51;;;;;;;6.90;1.55;;;10.70;72.40;;;;;;5074654;28;20032;-59
2021/05/02 05:59:17;;;;;;;3.15;0.95;;;10.70;72.40;;;;;;5074019;28;20533;-59
2021/05/02 06:01:43;;;;;;;4.13;1.40;;;10.80;72.40;;;;;;5074957;28;20349;-59
2021/05/02 06:04:09;;;;;;;2.90;1.27;;;10.70;72.10;;;;;;5074917;28;20103;-59
2021/05/02 06:06:36;;;;;;;2.60;1.40;;;10.80;72.00;;;;;;5074190;28;20111;-59
2021/05/02 06:09:07;;;;;;;5.57;1.73;;;10.70;71.80;;;;;;5074603;28;20179;-59
2021/05/02 06:11:33;;;;;;;1.55;0.80;;;10.70;71.80;;;;;;5074047;28;20237;-59
2021/05/02 06:13:59;;;;;;;3.95;1.40;;;10.70;71.60;;;;;;5073745;28;20036;-59
2021/05/02 06:16:25;;;;;;;3.17;1.30;;;10.70;71.50;;;;;;5074420;28;20537;-59
2021/05/02 06:18:55;;;;;;;6.30;1.50;;;10.70;71.40;;;;;;5074022;28;20059;-59
2021/05/02 06:21:22;;;;;;;2.15;1.60;;;10.80;71.60;;;;;;5074376;28;20052;-59
2021/05/02 06:23:49;;;;;;;4.72;1.42;;;10.70;71.50;;;;;;5074447;28;20033;-59
2021/05/02 06:26:18;;;;;;;4.95;1.60;;;10.70;71.70;;;;;;5073251;28;20036;-59
2021/05/02 06:28:44;;;;;;;7.63;1.80;;;10.80;71.60;;;;;;5074197;28;20045;-59
2021/05/02 06:31:11;;;;;;;10.98;2.35;;;10.70;71.40;;;;;;5074082;28;20432;-59
2021/05/02 06:33:37;;;;;;;3.20;1.48;;;10.80;71.60;;;;;;5073546;28;20090;-59
2021/05/02 06:36:03;;;;;;;3.40;1.40;;;10.80;71.30;;;;;;5074196;28;20028;-59
2021/05/02 06:38:28;;;;;;;1.90;1.00;;;10.80;70.90;;;;;;5074180;28;20031;-59
2021/05/02 06:40:54;;;;;;;5.43;1.40;;;10.80;70.90;;;;;;5073320;28;20032;-59
2021/05/02 06:43:20;;;;;;;6.50;1.77;;;10.80;70.90;;;;;;5073884;28;20081;-59
2021/05/02 06:45:46;;;;;;;11.45;2.55;;;10.80;71.00;;;;;;5073980;28;20040;-59
2021/05/02 06:48:11;;;;;;;2.45;1.13;;;10.80;71.30;;;;;;5072963;28;20044;-59
2021/05/02 06:50:37;;;;;;;5.97;1.60;;;10.80;71.50;;;;;;5073868;28;20028;-59
2021/05/02 06:53:03;;;;;;;4.72;1.42;;;10.90;71.70;;;;;;5073645;28;20093;-59
2021/05/02 06:55:28;;;;;;;0.73;0.70;;;10.90;71.30;;;;;;5073047;28;20043;-59
2021/05/02 06:57:55;;;;;;;5.25;1.30;;;10.90;71.20;;;;;;5073707;28;20368;-59
2021/05/02 07:00:21;;;;;;;3.58;1.02;;;10.90;71.40;;;;;;5073513;28;20032;-59
2021/05/02 07:02:47;;;;;;;0.93;0.82;;;10.90;71.50;;;;;;5072973;28;20361;-59
2021/05/02 07:05:13;;;;;;;3.65;1.20;;;10.90;71.60;;;;;;5073505;28;20048;-59
2021/05/02 07:07:38;;;;;;;9.30;2.17;;;10.90;71.80;;;;;;5072764;28;20095;-59
2021/05/02 07:10:05;;;;;;;2.90;1.35;;;10.90;72.00;;;;;;5073397;28;20027;-59
2021/05/02 07:12:31;;;;;;;2.70;1.60;;;10.90;71.90;;;;;;5073205;28;20082;-59
2021/05/02 07:14:57;;;;;;;2.80;1.30;;;10.90;72.00;;;;;;5072908;28;20040;-59
2021/05/02 07:17:23;;;;;;;2.40;1.25;;;10.90;72.00;;;;;;5073113;28;20025;-59
2021/05/02 07:19:48;;;;;;;5.28;1.35;;;10.90;71.90;;;;;;5073364;28;20123;-59
2021/05/02 07:22:15;;;;;;;2.97;1.10;;;10.90;71.90;;;;;;5072519;28;20025;-59
2021/05/02 07:24:41;;;;;;;4.68;1.23;;;10.90;71.80;;;;;;5070844;28;20021;-59
2021/05/02 07:27:07;;;;;;;9.50;1.92;;;10.90;71.90;;;;;;5072552;28;20078;-59
2021/05/02 07:29:32;;;;;;;4.97;1.63;;;10.90;72.10;;;;;;5071195;28;20055;-59
2021/05/02 07:31:58;;;;;;;3.72;1.30;;;10.80;72.20;;;;;;5071258;28;20032;-59
2021/05/02 07:34:24;;;;;;;4.80;1.60;;;10.80;72.30;;;;;;5071411;28;20064;-60
2021/05/02 07:36:53;;;;;;;4.88;1.48;;;10.80;72.30;;;;;;5065142;28;20044;-60
2021/05/02 07:39:20;;;;;;;3.80;1.92;;;10.80;73.20;;;;;;5072265;28;20067;-59
2021/05/02 07:41:46;;;;;;;2.33;1.33;;;10.80;72.70;;;;;;5072295;28;20883;-60
2021/05/02 07:44:11;;;;;;;1.88;1.23;;;10.90;72.80;;;;;;5068870;28;20094;-60
2021/05/02 07:46:37;;;;;;;2.47;1.40;;;10.90;72.60;;;;;;5072052;28;20048;-60
2021/05/02 07:49:03;;;;;;;7.80;1.80;;;10.90;72.30;;;;;;5067075;28;20064;-62
2021/05/02 07:51:29;;;;;;;2.20;1.30;;;10.90;72.50;;;;;;5062481;28;20028;-60
2021/05/02 07:53:55;;;;;;;7.07;1.33;;;10.90;72.50;;;;;;5072038;28;20033;-60
2021/05/02 07:56:20;;;;;;;4.65;1.48;;;10.90;72.30;;;;;;5072369;28;20025;-60
2021/05/02 07:58:46;;;;;;;7.60;2.20;;;10.80;72.40;;;;;;5069700;28;20071;-60
2021/05/02 08:01:12;;;;;;;11.32;1.88;;;10.80;72.60;;;;;;5071372;28;20531;-60
2021/05/02 08:03:38;;;;;;;3.55;1.42;;;10.80;73.00;;;;;;5063612;28;20107;-60
2021/05/02 08:06:04;;;;;;;4.57;1.70;;;10.90;73.30;;;;;;5070891;28;20423;-60
2021/05/02 08:08:29;;;;;;;1.65;1.15;;;10.90;73.30;;;;;;5071183;28;20084;-60
2021/05/02 08:10:58;;;;;;;6.60;1.55;;;10.90;73.10;;;;;;5070990;28;20039;-60
2021/05/02 08:13:23;;;;;;;5.88;1.17;;;10.90;72.90;;;;;;5065783;28;20399;-60
2021/05/02 08:15:49;;;;;;;5.72;1.55;;;10.90;72.80;;;;;;5068633;28;20023;-60
2021/05/02 08:18:15;;;;;;;2.72;1.27;;;10.90;73.00;;;;;;5070820;28;20881;-60
2021/05/02 08:20:41;;;;;;;8.05;2.00;;;10.90;73.10;;;;;;5066638;28;20529;-60
2021/05/02 08:23:07;;;;;;;6.43;1.73;;;10.80;73.30;;;;;;5071303;28;20025;-60
2021/05/02 08:25:33;;;;;;;7.25;1.95;;;10.90;73.50;;;;;;5070796;28;20476;-60
2021/05/02 08:27:59;;;;;;;3.33;0.90;;;10.90;73.70;;;;;;5071873;28;20035;-60
2021/05/02 08:30:24;;;;;;;9.77;1.58;;;10.90;73.30;;;;;;5071043;28;20086;-60
2021/05/02 08:32:50;;;;;;;0.35;0.35;;;10.90;73.20;;;;;;5070844;28;20024;-60
2021/05/02 08:35:16;;;;;;;2.10;0.82;;;10.90;72.90;;;;;;5072065;28;20021;-60
2021/05/02 08:37:42;;;;;;;2.33;1.02;;;10.90;72.90;;;;;;5064785;28;20067;-60
2021/05/02 08:40:09;;;;;;;2.40;0.70;;;10.90;73.00;;;;;;5074962;28;20044;-60
2021/05/02 08:42:35;;;;;;;1.15;0.68;;;10.90;73.00;;;;;;5075425;28;20029;-60
2021/05/02 08:45:00;;;;;;;1.05;0.90;;;10.90;73.00;;;;;;5072021;28;20032;-60
2021/05/02 08:47:29;;;;;;;4.45;1.50;;;10.90;73.10;;;;;;5064666;28;20045;-59
2021/05/02 08:49:55;;;;;;;6.10;1.58;;;10.90;73.20;;;;;;5068069;28;20028;-60
2021/05/02 08:52:21;;;;;;;1.98;0.93;;;10.90;73.30;;;;;;5074223;28;20024;-60
2021/05/02 08:54:47;;;;;;;3.83;1.20;;;10.80;73.20;;;;;;5073404;28;20058;-60
2021/05/02 08:57:13;;;;;;;0.60;0.60;;;10.80;73.50;;;;;;5070568;28;20468;-60
2021/05/02 08:59:40;;;;;;;1.67;0.93;;;10.80;73.40;;;;;;5073314;28;20025;-61
2021/05/02 09:02:06;;;;;;;0.80;0.70;;;10.80;73.20;;;;;;5072553;28;20024;-60
2021/05/02 09:04:32;;;;;;;3.35;0.93;;;10.80;73.20;;;;;;5074146;28;20040;-60
2021/05/02 09:07:00;;;;;;;2.25;0.80;;;10.80;73.30;;;;;;5074143;28;20032;-60
2021/05/02 09:09:26;;;;;;;2.53;0.95;;;10.80;73.30;;;;;;5073578;28;20040;-60
2021/05/02 09:11:52;;;;;;;0.70;0.65;;;10.80;73.60;;;;;;5074431;28;20024;-60
2021/05/02 09:14:22;;;;;;;3.53;1.33;;;10.80;73.70;;;;;;5073454;28;20032;-60
2021/05/02 09:16:53;;;;;;;6.18;1.30;;;10.90;73.50;;;;;;5074096;28;20025;-60
2021/05/02 09:19:20;;;;;;;2.85;1.20;;;10.80;73.40;;;;;;5074785;28;20055;-60
2021/05/02 09:21:46;;;;;;;4.65;1.80;;;10.80;73.80;;;;;;5075078;28;20025;-60
2021/05/02 09:24:31;;;;;;;1.13;0.93;;;10.90;73.90;;;;;;5066673;28;20528;-60
2021/05/02 09:27:15;;;;;;;2.63;0.75;;;10.80;73.70;;;;;;5075431;28;20024;-60
2021/05/02 09:29:43;;;;;;;3.40;1.48;;;10.80;73.60;;;;;;5074517;28;20032;-63
2021/05/02 09:32:12;;;;;;;3.67;1.38;;;10.80;73.90;;;;;;5075525;28;20024;-62
2021/05/02 09:34:46;;;;;;;4.25;1.25;;;10.80;74.00;;;;;;5075230;28;20422;-62
2021/05/02 09:37:12;;;;;;;2.05;0.90;;;10.80;74.50;;;;;;5069426;28;20033;-60
2021/05/02 09:39:53;;;;;;;4.90;1.25;;;10.80;74.60;;;;;;5070054;28;20070;-59
2021/05/02 09:42:45;;;;;;;8.32;1.30;;;10.80;74.70;;;;;;5074567;28;20023;-61
2021/05/02 09:45:14;;;;;;;2.58;1.13;;;10.80;74.80;;;;;;5073449;28;20115;-61
2021/05/02 09:47:42;;;;;;;4.20;1.30;;;10.80;74.90;;;;;;5072169;28;20039;-61
2021/05/02 09:50:22;;;;;;;0.60;0.60;;;10.70;74.60;;;;;;5073721;28;20150;-60
2021/05/02 09:53:02;;;;;;;1.85;1.17;;;10.70;75.00;;;;;;5074027;28;20387;-60
2021/05/02 09:55:39;;;;;;;2.80;1.00;;;10.70;74.70;;;;;;5072828;28;20062;-60
2021/05/02 09:58:12;;;;;;;3.58;0.90;;;10.70;74.50;;;;;;5073686;28;20036;-60
2021/05/02 10:00:43;;;;;;;2.83;1.10;;;10.70;74.50;;;;;;5069947;28;20113;-60
2021/05/02 10:03:15;;;;;;;6.97;1.02;;;10.70;74.20;;;;;;5067054;28;20029;-60
2021/05/02 10:05:57;;;;;;;1.70;1.25;;;10.70;74.20;;;;;;5072137;28;20025;-60
2021/05/02 10:08:31;;;;;;;2.08;1.17;;;10.70;74.50;;;;;;5074470;28;20033;-60
2021/05/02 10:10:59;;;;;;;1.80;1.00;;;10.70;74.80;;;;;;5073787;28;20070;-60
2021/05/02 10:13:26;;;;;;;2.35;1.17;;;10.70;74.70;;;;;;5074407;28;20082;-60
2021/05/02 10:15:51;;;;;;;2.20;1.20;;;10.70;74.40;;;;;;5074556;28;20028;-60
2021/05/02 10:18:17;;;;;;;3.25;0.93;;;10.70;74.30;;;;;;5073866;28;20036;-60
2021/05/02 10:20:46;;;;;;;1.55;1.05;;;10.70;73.90;;;;;;5074468;28;20024;-60
2021/05/02 10:23:13;;;;;;;5.25;1.15;;;10.70;73.80;;;;;;5073937;28;20032;-60
2021/05/02 10:25:40;;;;;;;3.33;1.20;;;10.70;73.90;;;;;;5073714;28;20048;-60
2021/05/02 10:28:06;;;;;;;3.35;1.05;;;10.70;73.90;;;;;;5074027;28;20455;-60
2021/05/02 10:30:38;;;;;;;1.70;0.80;;;10.70;73.80;;;;;;5067345;28;20044;-60
2021/05/02 10:33:09;;;;;;;0.73;0.70;;;10.70;73.70;;;;;;5073127;28;20036;-61
2021/05/02 10:35:46;;;;;;;3.40;1.15;;;10.70;73.70;;;;;;5073730;28;20032;-61
2021/05/02 10:38:15;;;;;;;2.13;0.70;;;10.70;74.00;;;;;;5073564;28;20025;-60
2021/05/02 10:40:41;;;;;;;0.60;0.60;;;10.60;73.50;;;;;;5073091;28;20024;-60
2021/05/02 10:43:10;;;;;;;1.27;1.08;;;10.60;73.50;;;;;;5073071;28;20074;-60
2021/05/02 10:45:40;;;;;;;8.15;1.52;;;10.60;73.50;;;;;;5073431;28;20040;-60
2021/05/02 10:48:15;;;;;;;2.45;1.05;;;10.70;73.80;;;;;;5072300;28;20054;-60
2021/05/02 10:50:42;;;;;;;3.85;1.58;;;10.70;73.70;;;;;;5072155;28;20040;-60
2021/05/02 10:53:14;;;;;;;7.03;1.55;;;10.70;74.00;;;;;;5070651;28;20023;-60
2021/05/02 10:55:49;;;;;;;2.05;1.20;;;10.70;74.10;;;;;;5069756;28;20029;-60
2021/05/02 10:58:24;;;;;;;2.40;1.17;;;10.70;74.20;;;;;;5072063;28;20039;-60
2021/05/02 11:01:01;;;;;;;7.53;1.42;;;10.70;73.90;;;;;;5067937;28;20028;-60
2021/05/02 11:03:39;;;;;;;1.38;0.82;;;10.70;74.10;;;;;;5071651;28;20021;-60
2021/05/02 11:06:05;;;;;;;4.45;1.30;;;10.70;74.00;;;;;;5071231;28;20450;-66
2021/05/02 11:08:46;;;;;;;3.85;0.98;;;10.70;74.10;;;;;;5071240;28;20052;-60
2021/05/02 11:11:37;;;;;;;2.53;1.20;;;10.70;74.20;;;;;;5070469;28;20028;-61
2021/05/02 11:14:13;;;;;;;2.05;0.93;;;10.70;74.00;;;;;;5070997;28;20472;-60
2021/05/02 11:16:44;;;;;;;1.23;0.95;;;10.60;73.60;;;;;;5071888;28;20028;-60
2021/05/02 11:19:24;;;;;;;2.55;1.20;;;10.70;73.50;;;;;;5071593;28;20048;-65
2021/05/02 11:21:51;;;;;;;3.40;1.13;;;10.60;73.30;;;;;;5071051;28;20024;-67
2021/05/02 11:24:40;;;;;;;1.17;0.77;;;10.60;73.30;;;;;;5071216;28;20028;-60
2021/05/02 11:30:01;;;;;;;8.20;1.35;;;10.70;73.90;;;;;;5067383;28;20090;-61
2021/05/02 11:32:27;;;;;;;3.78;1.38;;;10.70;74.00;;;;;;5070165;28;20036;-61
2021/05/02 11:34:57;;;;;;;2.63;1.00;;;10.70;74.00;;;;;;5068573;28;20384;-60
2021/05/02 11:37:53;;;;;;;5.05;1.00;;;10.70;74.00;;;;;;5068074;28;20032;-60
2021/05/02 11:40:28;;;;;;;3.08;0.80;;;10.80;74.00;;;;;;5058747;28;20028;-60
2021/05/02 11:43:11;;;;;;;0.95;0.93;;;10.80;73.50;;;;;;5068504;28;20058;-60
2021/05/02 11:45:51;;;;;;;2.10;1.30;;;10.80;73.50;;;;;;5068865;28;20123;-60
2021/05/02 11:48:28;;;;;;;3.88;1.55;;;10.90;73.00;;;;;;5066436;28;20039;-60
2021/05/02 11:50:59;;;;;;;1.88;1.00;;;10.90;71.50;;;;;;5069780;28;20039;-60
2021/05/02 11:53:46;;;;;;;3.65;2.03;;;10.90;70.70;;;;;;5068782;28;20035;-59
2021/05/02 11:56:35;;;;;;;1.98;1.10;;;10.90;70.30;;;;;;5067824;28;20379;-60
2021/05/02 11:59:10;;;;;;;2.80;1.05;;;11.00;70.70;;;;;;5069682;28;20422;-60
2021/05/02 12:01:41;;;;;;;2.40;1.27;;;11.00;70.80;;;;;;5069344;28;20559;-60
2021/05/02 12:04:08;;;;;;;4.25;1.70;;;11.00;70.40;;;;;;5068985;28;20483;-60
2021/05/02 12:06:37;;;;;;;5.03;1.02;;;11.10;69.80;;;;;;5070085;28;20047;-61
2021/05/02 12:09:14;;;;;;;4.18;1.10;;;11.10;69.80;;;;;;5069372;28;20040;-61
2021/05/02 12:11:41;;;;;;;1.38;0.98;;;11.20;71.00;;;;;;5067271;28;20025;-61
2021/05/02 12:14:07;;;;;;;6.35;1.27;;;11.20;71.30;;;;;;5063026;28;20036;-60
2021/05/02 12:16:33;;;;;;;1.40;0.70;;;11.20;71.30;;;;;;5069641;28;20032;-60
2021/05/02 12:19:05;;;;;;;2.08;0.70;;;11.20;71.70;;;;;;5068442;28;20123;-60
2021/05/02 12:21:34;;;;;;;4.57;1.13;;;11.20;71.60;;;;;;5066773;28;20021;-60
2021/05/02 12:24:14;;;;;;;3.92;1.30;;;11.30;71.80;;;;;;5070005;28;20032;-60
2021/05/02 12:26:51;;;;;;;4.03;1.15;;;11.30;71.70;;;;;;5069092;28;20016;-60
2021/05/02 12:29:26;;;;;;;5.05;1.15;;;11.30;71.60;;;;;;5069660;28;20124;-60
2021/05/02 12:31:59;;;;;;;6.22;1.38;;;11.30;72.00;;;;;;5065067;28;20027;-60
2021/05/02 12:34:27;;;;;;;3.47;1.10;;;11.30;70.90;;;;;;5069212;28;20024;-60
2021/05/02 12:36:54;;;;;;;4.50;1.40;;;11.40;72.00;;;;;;5067224;28;20499;-60
2021/05/02 12:39:20;;;;;;;3.67;1.40;;;11.40;72.10;;;;;;5068920;28;20426;-60
2021/05/02 12:41:52;;;;;;;2.92;1.55;;;11.40;71.80;;;;;;5068898;28;20028;-60
2021/05/02 12:44:22;;;;;;;7.05;1.50;;;11.50;71.20;;;;;;5069559;28;20033;-60
2021/05/02 12:46:53;;;;;;;5.28;1.35;;;11.50;71.20;;;;;;5067239;28;20128;-60
2021/05/02 12:49:24;;;;;;;7.20;1.42;;;11.50;70.80;;;;;;5068525;28;20390;-60
2021/05/02 12:51:57;;;;;;;6.00;1.92;;;11.60;70.40;;;;;;5068839;28;20415;-60
2021/05/02 12:54:30;;;;;;;3.55;1.40;;;11.70;70.60;;;;;;5067966;28;20028;-60
2021/05/02 12:57:22;;;;;;;;;;;11.70;69.80;;;;;;5069532;28;20111;-60